createdAt,value
2019-01-03T04:01:01.968Z,2.70
2019-01-03T04:02:02.418Z,3.30
2019-01-03T04:03:02.029Z,3.30
2019-01-03T04:04:00.637Z,3.10
2019-01-03T04:05:00.354Z,2.90
2019-01-03T04:06:00.478Z,3.00
2019-01-03T04:07:00.639Z,3.30
2019-01-03T04:08:00.781Z,2.90
2019-01-03T04:09:01.043Z,3.10
2019-01-03T04:10:01.117Z,3.10
2019-01-03T04:11:01.218Z,2.90
2019-01-03T04:12:01.377Z,3.00
2019-01-03T04:13:01.557Z,3.30
2019-01-03T04:14:01.695Z,2.80
2019-01-03T04:15:01.841Z,3.30
2019-01-03T04:16:01.990Z,3.40
2019-01-03T04:17:02.219Z,3.10
2019-01-03T04:18:02.343Z,3.10
2019-01-03T04:19:02.497Z,3.00
2019-01-03T04:20:02.715Z,2.90
2019-01-03T04:21:02.847Z,2.80
2019-01-03T04:22:03.058Z,3.00
2019-01-03T04:23:03.182Z,3.20
2019-01-03T04:24:03.335Z,3.40
2019-01-03T04:25:03.617Z,3.10
2019-01-03T04:26:03.601Z,2.70
2019-01-03T04:27:03.817Z,3.40
2019-01-03T04:28:03.968Z,3.10
2019-01-03T04:29:04.147Z,2.90
2019-01-03T04:30:04.315Z,2.80
2019-01-03T04:31:04.481Z,3.10
2019-01-03T04:32:04.516Z,3.20
2019-01-03T04:33:04.703Z,3.30
2019-01-03T04:34:04.895Z,3.30
2019-01-03T04:35:05.045Z,3.40
2019-01-03T04:36:05.134Z,3.80
2019-01-03T04:37:05.290Z,3.30
2019-01-03T04:38:05.463Z,3.70
2019-01-03T04:39:05.570Z,3.60
2019-01-03T04:40:05.809Z,3.60
2019-01-03T04:41:05.888Z,3.90
2019-01-03T04:42:06.096Z,3.70
2019-01-03T04:43:06.988Z,3.70
2019-01-03T04:44:06.470Z,3.70
2019-01-03T04:45:06.612Z,4.80
2019-01-03T04:46:06.755Z,5.80
2019-01-03T04:47:06.950Z,17.00
2019-01-03T04:48:07.115Z,29.90
2019-01-03T04:49:07.952Z,39.90
2019-01-03T04:50:07.436Z,36.90
2019-01-03T04:51:07.639Z,26.80
2019-01-03T04:52:07.796Z,17.20
2019-01-03T04:53:07.884Z,13.90
2019-01-03T04:54:08.058Z,10.50
2019-01-03T04:55:08.235Z,5.70
2019-01-03T04:56:08.344Z,5.80
2019-01-03T04:57:08.515Z,4.50
2019-01-03T04:58:08.741Z,31.10
2019-01-03T04:59:08.834Z,28.90
2019-01-03T05:00:09.056Z,29.00
2019-01-03T05:01:09.176Z,30.70
2019-01-03T05:02:09.379Z,12.30
2019-01-03T05:03:09.414Z,10.50
2019-01-03T05:04:09.604Z,5.80
2019-01-03T05:05:09.789Z,4.30
2019-01-03T05:06:09.905Z,3.80
2019-01-03T05:07:10.107Z,3.60
2019-01-03T05:08:10.220Z,3.90
2019-01-03T05:09:10.516Z,3.40
2019-01-03T05:10:10.569Z,3.40
2019-01-03T05:11:10.767Z,3.50
2019-01-03T05:12:10.869Z,3.40
2019-01-03T05:13:11.064Z,3.40
2019-01-03T05:14:11.208Z,2.90
2019-01-03T05:15:11.417Z,2.90
2019-01-03T05:16:11.639Z,3.00
2019-01-03T05:17:11.665Z,3.00
2019-01-03T05:18:11.865Z,3.40
2019-01-03T05:19:12.024Z,3.40
2019-01-03T05:20:12.193Z,3.80
2019-01-03T05:21:12.380Z,7.40
2019-01-03T05:22:12.525Z,11.00
2019-01-03T05:23:12.585Z,8.50
2019-01-03T05:24:12.824Z,7.40
2019-01-03T05:25:13.034Z,6.20
2019-01-03T05:26:13.054Z,6.70
2019-01-03T05:27:13.268Z,4.60
2019-01-03T05:28:13.504Z,4.50
2019-01-03T05:29:13.622Z,4.50
2019-01-03T05:30:18.234Z,4.00
2019-01-03T05:31:13.988Z,3.70
2019-01-03T05:32:14.103Z,4.10
2019-01-03T05:33:14.273Z,6.30
2019-01-03T05:34:14.345Z,6.70
2019-01-03T05:35:14.589Z,6.10
2019-01-03T05:36:14.741Z,4.50
2019-01-03T05:37:15.453Z,3.80
2019-01-03T05:38:15.086Z,4.30
2019-01-03T05:39:15.332Z,3.80
2019-01-03T05:40:15.440Z,3.00
2019-01-03T05:41:15.658Z,3.50
2019-01-03T05:42:15.760Z,4.00
2019-01-03T05:43:15.907Z,5.90
2019-01-03T05:44:16.202Z,7.70
2019-01-03T05:45:16.329Z,9.70
2019-01-03T05:46:16.494Z,8.60
2019-01-03T05:47:16.641Z,6.60
2019-01-03T05:48:16.839Z,6.00
2019-01-03T05:49:16.958Z,6.70
2019-01-03T05:50:17.153Z,5.40
2019-01-03T05:51:17.246Z,4.50
2019-01-03T05:52:17.401Z,4.00
2019-01-03T05:53:17.575Z,4.20
2019-01-03T05:54:17.709Z,3.90
2019-01-03T05:55:17.902Z,3.10
2019-01-03T05:56:18.010Z,3.60
2019-01-03T05:57:18.208Z,3.40
2019-01-03T05:58:18.337Z,3.40
2019-01-03T05:59:18.449Z,3.10
2019-01-03T06:00:18.618Z,3.10
2019-01-03T06:01:18.799Z,3.40
2019-01-03T06:02:18.969Z,3.40
2019-01-03T06:03:19.103Z,3.40
2019-01-03T06:04:19.245Z,3.00
2019-01-03T06:05:19.415Z,3.70
2019-01-03T06:06:19.604Z,3.70
2019-01-03T06:07:19.714Z,3.40
2019-01-03T06:08:19.891Z,3.20
2019-01-03T06:09:20.002Z,3.70
2019-01-03T06:10:20.213Z,3.50
2019-01-03T06:11:20.393Z,3.40
2019-01-03T06:12:20.542Z,3.50
2019-01-03T06:13:20.651Z,4.80
2019-01-03T06:14:20.824Z,4.00
2019-01-03T06:15:21.008Z,3.30
2019-01-03T06:16:21.146Z,3.70
2019-01-03T06:17:21.373Z,4.20
2019-01-03T06:18:21.534Z,4.00
2019-01-03T06:19:21.638Z,3.80
2019-01-03T06:20:21.825Z,3.70
2019-01-03T06:21:21.961Z,4.20
2019-01-03T06:22:22.116Z,4.80
2019-01-03T06:23:22.279Z,4.60
2019-01-03T06:24:22.497Z,4.90
2019-01-03T06:25:22.606Z,4.30
2019-01-03T06:26:22.775Z,4.90
2019-01-03T06:27:22.916Z,4.20
2019-01-03T06:28:23.056Z,4.60
2019-01-03T06:29:23.188Z,4.20
2019-01-03T06:30:23.425Z,4.60
2019-01-03T06:31:23.521Z,4.60
2019-01-03T06:32:23.716Z,4.40
2019-01-03T06:33:23.901Z,4.40
2019-01-03T06:34:23.968Z,4.20
2019-01-03T06:35:24.112Z,4.30
2019-01-03T06:36:24.335Z,4.60
2019-01-03T06:37:24.507Z,4.10
2019-01-03T06:38:24.569Z,3.90
2019-01-03T06:39:24.807Z,4.30
2019-01-03T06:40:24.931Z,4.50
2019-01-03T06:41:25.067Z,4.40
2019-01-03T06:42:25.284Z,4.40
2019-01-03T06:43:25.442Z,5.00
2019-01-03T06:44:25.643Z,4.70
2019-01-03T06:45:25.734Z,3.40
2019-01-03T06:46:25.933Z,3.80
2019-01-03T06:47:26.005Z,4.00
2019-01-03T06:48:26.209Z,3.80
2019-01-03T06:49:26.365Z,4.00
2019-01-03T06:50:26.504Z,3.30
2019-01-03T06:51:26.633Z,3.70
2019-01-03T06:52:26.830Z,3.40
2019-01-03T06:53:26.940Z,3.40
2019-01-03T06:54:27.174Z,3.20
2019-01-03T06:55:27.303Z,3.30
2019-01-03T06:56:27.423Z,3.90
2019-01-03T06:57:27.699Z,3.20
2019-01-03T06:58:27.810Z,3.00
2019-01-03T06:59:27.957Z,3.00
2019-01-03T07:00:28.118Z,3.20
2019-01-03T07:01:28.251Z,3.40
2019-01-03T07:02:28.449Z,3.10
2019-01-03T07:03:28.627Z,3.10
2019-01-03T07:04:28.798Z,3.50
2019-01-03T07:05:29.038Z,3.00
2019-01-03T07:06:29.063Z,3.40
2019-01-03T07:07:29.309Z,2.90
2019-01-03T07:08:29.758Z,3.00
2019-01-03T07:09:29.723Z,3.20
2019-01-03T07:10:30.069Z,3.10
2019-01-03T07:11:30.527Z,3.50
2019-01-03T07:12:30.050Z,4.20
2019-01-03T07:13:30.190Z,4.80
2019-01-03T07:14:30.634Z,4.50
2019-01-03T07:15:30.456Z,5.10
2019-01-03T07:16:30.627Z,4.80
2019-01-03T07:17:31.095Z,4.70
2019-01-03T07:18:30.993Z,4.90
2019-01-03T07:19:31.268Z,5.70
2019-01-03T07:20:31.337Z,4.80
2019-01-03T07:21:31.562Z,5.30
2019-01-03T07:22:31.756Z,4.40
2019-01-03T07:23:31.893Z,4.70
2019-01-03T07:24:32.060Z,4.80
2019-01-03T07:25:32.187Z,13.40
2019-01-03T07:26:32.343Z,8.40
2019-01-03T07:27:32.580Z,5.40
2019-01-03T07:28:32.770Z,4.80
2019-01-03T07:29:33.052Z,4.20
2019-01-03T07:30:33.037Z,4.40
2019-01-03T07:31:33.168Z,3.20
2019-01-03T07:32:33.289Z,3.60
2019-01-03T07:33:33.419Z,3.10
2019-01-03T07:34:33.684Z,3.00
2019-01-03T07:35:33.762Z,3.40
2019-01-03T07:36:33.983Z,3.40
2019-01-03T07:37:34.089Z,5.20
2019-01-03T07:38:34.327Z,4.70
2019-01-03T07:39:34.489Z,6.10
2019-01-03T07:40:34.655Z,8.90
2019-01-03T07:41:34.794Z,8.90
2019-01-03T07:42:34.941Z,7.40
2019-01-03T07:43:35.063Z,7.30
2019-01-03T07:44:35.239Z,7.80
2019-01-03T07:45:35.354Z,8.80
2019-01-03T07:46:35.575Z,11.70
2019-01-03T07:47:35.667Z,9.20
2019-01-03T07:48:35.844Z,8.70
2019-01-03T07:49:36.414Z,8.90
2019-01-03T07:50:36.352Z,9.30
2019-01-03T07:51:36.446Z,8.60
2019-01-03T07:52:36.560Z,24.80
2019-01-03T07:53:36.738Z,13.70
2019-01-03T07:54:36.806Z,18.40
2019-01-03T07:55:37.149Z,9.10
2019-01-03T07:56:37.154Z,8.80
2019-01-03T07:57:37.280Z,8.40
2019-01-03T07:58:37.527Z,9.90
2019-01-03T07:59:37.634Z,12.00
2019-01-03T08:00:37.760Z,19.60
2019-01-03T08:01:37.918Z,8.30
2019-01-03T08:02:38.117Z,6.40
2019-01-03T08:03:38.256Z,6.50
2019-01-03T08:04:38.427Z,6.70
2019-01-03T08:05:38.500Z,7.10
2019-01-03T08:06:38.771Z,7.00
2019-01-03T08:07:38.832Z,6.70
2019-01-03T08:08:39.039Z,7.40
2019-01-03T08:09:39.187Z,7.10
2019-01-03T08:10:39.319Z,7.50
2019-01-03T08:11:39.525Z,7.70
2019-01-03T08:12:39.637Z,9.10
2019-01-03T08:13:39.829Z,8.70
2019-01-03T08:14:39.918Z,11.40
2019-01-03T08:15:40.178Z,9.50
2019-01-03T08:16:40.325Z,10.60
2019-01-03T08:17:40.499Z,10.50
2019-01-03T08:18:40.721Z,9.90
2019-01-03T08:19:40.750Z,9.60
2019-01-03T08:20:40.937Z,9.30
2019-01-03T08:21:41.096Z,9.00
2019-01-03T08:22:41.225Z,8.70
2019-01-03T08:23:41.426Z,8.60
2019-01-03T08:24:41.485Z,7.80
2019-01-03T08:25:41.581Z,7.20
2019-01-03T08:26:41.759Z,7.00
2019-01-03T08:27:41.930Z,6.40
2019-01-03T08:28:42.103Z,7.20
2019-01-03T08:29:42.305Z,6.30
2019-01-03T08:30:42.444Z,7.10
2019-01-03T08:31:42.535Z,7.70
2019-01-03T08:32:42.750Z,8.40
2019-01-03T08:33:42.931Z,9.00
2019-01-03T08:34:43.073Z,7.60
2019-01-03T08:35:43.234Z,6.00
2019-01-03T08:36:43.456Z,8.90
2019-01-03T08:37:43.482Z,22.50
2019-01-03T08:38:43.804Z,22.10
2019-01-03T08:39:43.934Z,20.80
2019-01-03T08:40:44.012Z,19.40
2019-01-03T08:41:44.218Z,18.20
2019-01-03T08:42:44.369Z,17.10
2019-01-03T08:43:44.568Z,16.30
2019-01-03T08:44:44.709Z,15.30
2019-01-03T08:45:44.808Z,13.80
2019-01-03T08:46:44.985Z,14.00
2019-01-03T08:47:45.121Z,13.20
2019-01-03T08:48:45.245Z,14.60
2019-01-03T08:49:45.436Z,14.10
2019-01-03T08:50:45.561Z,13.70
2019-01-03T08:51:45.735Z,14.60
2019-01-03T08:52:45.875Z,14.90
2019-01-03T08:53:46.016Z,15.30
2019-01-03T08:54:46.265Z,14.90
2019-01-03T08:55:46.387Z,13.40
2019-01-03T08:56:46.546Z,11.10
2019-01-03T08:57:46.769Z,9.60
2019-01-03T08:58:46.838Z,9.90
2019-01-03T08:59:47.060Z,10.40
2019-01-03T09:00:47.259Z,13.60
2019-01-03T09:01:47.348Z,15.40
2019-01-03T09:02:47.557Z,14.20
2019-01-03T09:03:47.689Z,9.60
2019-01-03T09:04:47.830Z,8.30
2019-01-03T09:05:48.048Z,8.00
2019-01-03T09:06:48.967Z,8.00
2019-01-03T09:07:48.282Z,9.00
2019-01-03T09:08:48.491Z,8.40
2019-01-03T09:09:48.613Z,8.80
2019-01-03T09:10:48.777Z,8.30
2019-01-03T09:11:49.036Z,8.30
2019-01-03T09:12:49.181Z,8.10
2019-01-03T09:13:49.352Z,8.60
2019-01-03T09:14:49.460Z,9.10
2019-01-03T09:15:49.629Z,9.80
2019-01-03T09:16:49.825Z,9.80
2019-01-03T09:17:50.015Z,10.40
2019-01-03T09:18:50.048Z,11.50
2019-01-03T09:19:50.256Z,11.60
2019-01-03T09:20:50.402Z,12.10
2019-01-03T09:21:50.581Z,11.10
2019-01-03T09:22:50.736Z,11.00
2019-01-03T09:23:50.902Z,10.50
2019-01-03T09:24:51.021Z,10.90
2019-01-03T09:25:51.091Z,10.70
2019-01-03T09:26:51.356Z,11.80
2019-01-03T09:27:51.472Z,13.00
2019-01-03T09:28:51.668Z,15.10
2019-01-03T09:29:51.814Z,15.60
2019-01-03T09:30:51.913Z,15.30
2019-01-03T09:31:52.347Z,16.10
2019-01-03T09:32:52.508Z,17.20
2019-01-03T09:33:52.479Z,18.10
2019-01-03T09:34:52.614Z,18.80
2019-01-03T09:35:52.727Z,16.90
2019-01-03T09:36:52.891Z,15.30
2019-01-03T09:37:53.122Z,14.10
2019-01-03T09:38:53.340Z,13.00
2019-01-03T09:39:53.423Z,15.10
2019-01-03T09:40:53.532Z,16.30
2019-01-03T09:41:53.759Z,17.90
2019-01-03T09:42:53.806Z,17.20
2019-01-03T09:43:54.026Z,17.30
2019-01-03T09:44:54.241Z,17.10
2019-01-03T09:45:54.984Z,16.90
2019-01-03T09:46:54.572Z,16.10
2019-01-03T09:47:54.668Z,15.90
2019-01-03T09:48:54.817Z,16.80
2019-01-03T09:49:55.131Z,18.60
2019-01-03T09:50:55.097Z,20.40
2019-01-03T09:51:55.774Z,22.20
2019-01-03T09:52:55.404Z,24.70
2019-01-03T09:53:55.703Z,24.70
2019-01-03T09:54:55.782Z,24.80
2019-01-03T09:55:55.950Z,25.50
2019-01-03T09:56:56.203Z,26.70
2019-01-03T09:57:56.255Z,25.10
2019-01-03T09:58:56.452Z,24.90
2019-01-03T09:59:56.554Z,24.70
2019-01-03T10:00:56.706Z,24.60
2019-01-03T10:01:56.856Z,23.90
2019-01-03T10:02:57.113Z,24.90
2019-01-03T10:03:57.296Z,23.80
2019-01-03T10:04:57.355Z,23.00
2019-01-03T10:05:57.502Z,21.50
2019-01-03T10:06:57.700Z,19.20
2019-01-03T10:07:57.833Z,18.40
2019-01-03T10:08:58.022Z,20.20
2019-01-03T10:09:58.102Z,20.00
2019-01-03T10:10:58.310Z,20.70
2019-01-03T10:11:58.455Z,19.90
2019-01-03T10:12:58.615Z,19.00
2019-01-03T10:13:58.787Z,19.10
2019-01-03T10:14:58.959Z,19.10
2019-01-03T10:15:59.094Z,18.20
2019-01-03T10:16:59.233Z,18.20
2019-01-03T10:17:59.445Z,16.40
2019-01-03T10:18:59.641Z,15.70
2019-01-03T10:19:59.764Z,15.20
2019-01-03T10:20:59.921Z,11.20
2019-01-03T10:22:00.021Z,10.60
2019-01-03T10:23:00.236Z,7.70
2019-01-03T10:24:00.390Z,6.00
2019-01-03T10:25:00.509Z,6.10
2019-01-03T10:26:00.704Z,10.50
2019-01-03T10:27:00.871Z,11.50
2019-01-03T10:28:01.073Z,8.80
2019-01-03T10:29:01.156Z,8.00
2019-01-03T10:30:01.368Z,4.50
2019-01-03T10:31:01.555Z,4.20
2019-01-03T10:32:01.688Z,4.40
2019-01-03T10:33:01.874Z,4.90
2019-01-03T10:34:01.984Z,4.90
2019-01-03T10:35:02.157Z,25.40
2019-01-03T10:36:02.323Z,7.80
2019-01-03T10:37:02.482Z,5.50
2019-01-03T10:38:02.649Z,4.70
2019-01-03T10:39:02.810Z,4.10
2019-01-03T10:40:02.997Z,6.20
2019-01-03T10:41:03.105Z,4.50
2019-01-03T10:42:03.274Z,4.50
2019-01-03T10:43:03.395Z,5.20
2019-01-03T10:44:03.592Z,4.20
2019-01-03T10:45:03.741Z,4.40
2019-01-03T10:46:03.932Z,5.80
2019-01-03T10:47:03.985Z,4.60
2019-01-03T10:48:04.216Z,4.30
2019-01-03T10:49:04.353Z,5.10
2019-01-03T10:50:04.523Z,10.00
2019-01-03T10:51:04.703Z,7.40
2019-01-03T10:52:04.824Z,5.30
2019-01-03T10:53:04.982Z,12.60
2019-01-03T10:54:05.197Z,6.50
2019-01-03T10:55:05.335Z,5.30
2019-01-03T10:56:05.417Z,5.50
2019-01-03T10:57:05.660Z,6.10
2019-01-03T10:58:05.864Z,5.60
2019-01-03T10:59:06.003Z,4.40
2019-01-03T11:00:06.184Z,5.60
2019-01-03T11:01:06.276Z,7.60
2019-01-03T11:02:06.389Z,6.60
2019-01-03T11:03:06.676Z,7.80
2019-01-03T11:04:06.725Z,6.80
2019-01-03T11:05:06.852Z,5.50
2019-01-03T11:06:06.986Z,5.00
2019-01-03T11:07:07.253Z,5.40
2019-01-03T11:08:07.306Z,5.30
2019-01-03T11:09:07.487Z,4.60
2019-01-03T11:10:07.651Z,4.80
2019-01-03T11:11:07.764Z,5.00
2019-01-03T11:12:07.945Z,7.30
2019-01-03T11:13:08.131Z,6.10
2019-01-03T11:14:08.249Z,4.90
2019-01-03T11:15:08.437Z,16.60
2019-01-03T11:16:08.597Z,7.50
2019-01-03T11:17:08.759Z,10.30
2019-01-03T11:18:08.907Z,6.80
2019-01-03T11:19:09.110Z,7.50
2019-01-03T11:20:09.278Z,5.00
2019-01-03T11:21:09.419Z,5.40
2019-01-03T11:22:09.586Z,4.80
2019-01-03T11:23:09.711Z,5.10
2019-01-03T11:24:09.896Z,5.50
2019-01-03T11:25:10.070Z,5.50
2019-01-03T11:26:10.133Z,5.10
2019-01-03T11:27:10.382Z,5.30
2019-01-03T11:28:10.543Z,5.20
2019-01-03T11:29:10.615Z,5.30
2019-01-03T11:30:10.836Z,5.00
2019-01-03T11:31:11.018Z,7.30
2019-01-03T11:32:11.144Z,7.70
2019-01-03T11:33:11.328Z,5.90
2019-01-03T11:34:11.453Z,5.30
2019-01-03T11:35:11.675Z,5.80
2019-01-03T11:36:11.792Z,5.40
2019-01-03T11:37:11.885Z,5.90
2019-01-03T11:38:12.126Z,5.80
2019-01-03T11:39:12.347Z,5.60
2019-01-03T11:40:12.404Z,5.50
2019-01-03T11:41:12.575Z,5.20
2019-01-03T11:42:12.735Z,5.80
2019-01-03T11:43:12.870Z,5.50
2019-01-03T11:44:13.072Z,5.80
2019-01-03T11:45:13.208Z,6.10
2019-01-03T11:46:13.500Z,6.00
2019-01-03T11:47:13.590Z,5.80
2019-01-03T11:48:13.728Z,5.70
2019-01-03T11:49:13.908Z,5.90
2019-01-03T11:50:14.038Z,6.10
2019-01-03T11:51:14.215Z,5.20
2019-01-03T11:52:14.388Z,5.30
2019-01-03T11:53:14.462Z,5.70
2019-01-03T11:54:14.703Z,5.90
2019-01-03T11:55:14.812Z,5.80
2019-01-03T11:56:14.959Z,5.90
2019-01-03T11:57:15.145Z,6.00
2019-01-03T11:58:15.300Z,6.00
2019-01-03T11:59:15.477Z,6.00
2019-01-03T12:00:15.697Z,5.70
2019-01-03T12:01:15.820Z,6.00
2019-01-03T12:02:15.901Z,5.90
2019-01-03T12:03:16.076Z,5.90
2019-01-03T12:04:16.285Z,6.50
2019-01-03T12:05:16.401Z,5.90
2019-01-03T12:06:16.525Z,6.00
2019-01-03T12:07:16.695Z,5.90
2019-01-03T12:08:16.825Z,5.90
2019-01-03T12:09:17.134Z,6.70
2019-01-03T12:10:17.280Z,6.70
2019-01-03T12:11:17.386Z,6.20
2019-01-03T12:12:17.597Z,6.60
2019-01-03T12:13:17.771Z,5.90
2019-01-03T12:14:17.827Z,5.90
2019-01-03T12:15:18.037Z,5.30
2019-01-03T12:16:18.194Z,5.50
2019-01-03T12:17:18.373Z,5.80
2019-01-03T12:18:18.506Z,5.30
2019-01-03T12:19:18.647Z,5.30
2019-01-03T12:20:18.827Z,6.00
2019-01-03T12:21:18.937Z,5.60
2019-01-03T12:22:19.156Z,5.50
2019-01-03T12:23:19.337Z,5.80
2019-01-03T12:24:19.469Z,6.20
2019-01-03T12:25:19.625Z,6.30
2019-01-03T12:26:19.835Z,6.80
2019-01-03T12:27:19.977Z,7.00
2019-01-03T12:28:20.133Z,7.90
2019-01-03T12:29:20.312Z,9.70
2019-01-03T12:30:20.509Z,7.80
2019-01-03T12:31:20.590Z,8.60
2019-01-03T12:32:20.754Z,9.40
2019-01-03T12:33:20.923Z,8.70
2019-01-03T12:34:21.104Z,9.10
2019-01-03T12:35:21.289Z,7.40
2019-01-03T12:36:21.360Z,8.60
2019-01-03T12:37:21.598Z,9.40
2019-01-03T12:38:21.778Z,9.50
2019-01-03T12:39:21.950Z,9.10
2019-01-03T12:40:22.041Z,7.90
2019-01-03T12:41:22.891Z,7.30
2019-01-03T12:42:22.289Z,7.30
2019-01-03T12:43:22.573Z,9.20
2019-01-03T12:44:22.697Z,8.80
2019-01-03T12:45:22.820Z,8.90
2019-01-03T12:46:23.019Z,6.60
2019-01-03T12:47:23.188Z,6.70
2019-01-03T12:48:23.307Z,7.10
2019-01-03T12:49:23.508Z,7.20
2019-01-03T12:50:23.645Z,6.90
2019-01-03T12:51:23.811Z,7.00
2019-01-03T12:52:23.925Z,6.80
2019-01-03T12:53:24.133Z,6.60
2019-01-03T12:54:24.271Z,6.60
2019-01-03T12:55:24.379Z,6.60
2019-01-03T12:56:24.622Z,6.60
2019-01-03T12:57:24.841Z,6.00
2019-01-03T12:58:24.949Z,7.00
2019-01-03T12:59:25.142Z,8.40
2019-01-03T13:00:25.279Z,8.00
2019-01-03T13:01:25.403Z,7.00
2019-01-03T13:02:25.577Z,7.30
2019-01-03T13:03:25.734Z,6.80
2019-01-03T13:04:25.898Z,6.30
2019-01-03T13:05:26.063Z,6.30
2019-01-03T13:06:26.266Z,6.10
2019-01-03T13:07:26.393Z,5.50
2019-01-03T13:08:26.554Z,5.40
2019-01-03T13:09:26.658Z,4.80
2019-01-03T13:10:26.851Z,5.00
2019-01-03T13:11:27.044Z,4.70
2019-01-03T13:12:27.250Z,4.80
2019-01-03T13:13:27.449Z,5.10
2019-01-03T13:14:27.546Z,4.90
2019-01-03T13:15:27.706Z,4.80
2019-01-03T13:16:27.839Z,4.40
2019-01-03T13:17:28.055Z,4.30
2019-01-03T13:18:28.186Z,4.50
2019-01-03T13:19:28.401Z,5.00
2019-01-03T13:20:28.565Z,5.60
2019-01-03T13:21:28.690Z,5.00
2019-01-03T13:22:28.832Z,4.90
2019-01-03T13:23:28.980Z,5.70
2019-01-03T13:24:29.220Z,4.80
2019-01-03T13:25:29.378Z,5.00
2019-01-03T13:26:29.535Z,5.40
2019-01-03T13:27:29.668Z,4.90
2019-01-03T13:28:29.865Z,8.40
2019-01-03T13:29:29.981Z,8.20
2019-01-03T13:30:30.176Z,5.40
2019-01-03T13:31:30.328Z,6.40
2019-01-03T13:32:30.541Z,4.40
2019-01-03T13:33:30.609Z,5.00
2019-01-03T13:34:30.879Z,6.20
2019-01-03T13:35:30.974Z,6.70
2019-01-03T13:36:31.211Z,7.20
2019-01-03T13:37:31.295Z,7.30
2019-01-03T13:38:31.461Z,6.30
2019-01-03T13:39:31.661Z,6.70
2019-01-03T13:40:31.742Z,7.00
2019-01-03T13:41:31.934Z,7.20
2019-01-03T13:42:32.143Z,6.90
2019-01-03T13:43:32.245Z,6.90
2019-01-03T13:44:32.456Z,7.10
2019-01-03T13:45:32.591Z,6.70
2019-01-03T13:46:32.713Z,6.20
2019-01-03T13:47:32.890Z,6.80
2019-01-03T13:48:33.115Z,6.50
2019-01-03T13:49:33.254Z,5.80
2019-01-03T13:50:33.459Z,6.30
2019-01-03T13:51:33.707Z,6.20
2019-01-03T13:52:33.875Z,6.20
2019-01-03T13:53:33.918Z,5.90
2019-01-03T13:54:34.166Z,6.40
2019-01-03T13:55:34.271Z,6.30
2019-01-03T13:56:34.488Z,6.40
2019-01-03T13:57:34.687Z,6.50
2019-01-03T13:58:34.845Z,5.90
2019-01-03T13:59:35.283Z,6.40
2019-01-03T14:00:35.144Z,6.70
2019-01-03T14:01:35.576Z,6.70
2019-01-03T14:02:35.760Z,6.20
2019-01-03T14:03:36.942Z,6.70
2019-01-03T14:04:36.549Z,7.00
2019-01-03T14:07:11.829Z,7.80
2019-01-03T14:08:12.681Z,7.70
2019-01-03T14:09:13.099Z,7.40
2019-01-03T14:10:12.236Z,7.80
2019-01-03T14:11:11.262Z,7.60
2019-01-03T14:12:10.613Z,6.90
2019-01-03T14:13:10.708Z,7.10
2019-01-03T14:14:10.872Z,7.00
2019-01-03T14:15:10.991Z,7.30
2019-01-03T14:16:11.155Z,10.00
2019-01-03T14:17:11.335Z,14.40
2019-01-03T14:18:11.526Z,20.50
2019-01-03T14:19:11.744Z,21.70
2019-01-03T14:20:11.847Z,23.60
2019-01-03T14:21:12.023Z,25.50
2019-01-03T14:22:12.183Z,23.20
2019-01-03T14:23:12.313Z,25.00
2019-01-03T14:24:12.527Z,22.10
2019-01-03T14:25:12.707Z,23.40
2019-01-03T14:26:12.825Z,21.10
2019-01-03T14:27:12.982Z,21.10
2019-01-03T14:28:13.149Z,15.10
2019-01-03T14:29:13.372Z,14.50
2019-01-03T14:30:13.441Z,11.90
2019-01-03T14:31:13.652Z,10.30
2019-01-03T14:32:13.785Z,8.70
2019-01-03T14:33:14.131Z,8.90
2019-01-03T14:34:14.098Z,8.50
2019-01-03T14:35:14.244Z,8.10
2019-01-03T14:36:14.432Z,8.30
2019-01-03T14:37:14.649Z,8.10
2019-01-03T14:38:14.769Z,8.10
2019-01-03T14:39:15.048Z,8.20
2019-01-03T14:40:15.146Z,7.30
2019-01-03T14:41:15.255Z,7.70
2019-01-03T14:42:15.456Z,7.70
2019-01-03T14:43:15.585Z,8.30
2019-01-03T14:44:15.709Z,7.90
2019-01-03T14:45:15.908Z,8.40
2019-01-03T14:46:15.987Z,8.30
2019-01-03T14:47:16.225Z,7.60
2019-01-03T14:48:16.362Z,7.80
2019-01-03T14:49:16.496Z,7.90
2019-01-03T14:50:16.837Z,7.60
2019-01-03T14:51:16.934Z,8.70
2019-01-03T14:52:17.081Z,8.50
2019-01-03T14:53:17.201Z,9.00
2019-01-03T14:54:17.351Z,8.50
2019-01-03T15:26:14.308Z,11.30
2019-01-03T15:26:53.504Z,11.30
2019-01-03T15:32:09.551Z,11.40
2019-01-03T15:32:56.640Z,11.10
2019-01-03T15:35:21.007Z,9.50
2019-01-03T15:36:21.203Z,9.90
2019-01-03T15:37:23.620Z,9.70
2019-01-03T15:38:22.731Z,10.40
2019-01-03T15:47:04.168Z,10.40
2019-01-03T15:54:42.304Z,12.30
2019-01-03T15:55:27.515Z,11.50
2019-01-03T15:58:27.425Z,11.80
2019-01-03T15:59:27.369Z,11.00
2019-01-03T16:00:27.717Z,10.60
2019-01-03T16:01:27.947Z,10.70
2019-01-03T16:02:26.040Z,10.70
2019-01-03T16:03:25.944Z,10.20
2019-01-03T16:04:26.124Z,9.90
2019-01-03T16:05:26.312Z,9.90
2019-01-03T16:06:26.606Z,9.50
2019-01-03T16:07:26.770Z,9.70
2019-01-03T16:08:26.849Z,10.20
2019-01-03T16:09:27.012Z,10.20
2019-01-03T16:10:30.694Z,9.60
2019-01-03T16:11:28.128Z,9.10
2019-01-03T16:12:28.065Z,9.40
2019-01-03T16:13:27.854Z,10.60
2019-01-03T16:14:28.015Z,10.40
2019-01-03T16:15:28.213Z,11.20
2019-01-03T16:16:28.351Z,11.40
2019-01-03T16:17:41.288Z,11.00
2019-01-03T16:18:31.829Z,10.30
2019-01-03T16:19:37.738Z,9.50
2019-01-03T16:20:31.786Z,8.20
2019-01-03T16:21:31.288Z,7.70
2019-01-03T16:22:31.003Z,7.60
2019-01-03T16:23:29.693Z,7.10
2019-01-03T16:24:29.576Z,8.30
2019-01-03T16:25:29.687Z,7.20
2019-01-03T16:26:29.878Z,6.10
2019-01-03T16:27:30.026Z,6.80
2019-01-03T16:28:30.139Z,5.90
2019-01-03T16:29:30.266Z,6.40
2019-01-03T16:30:31.212Z,7.00
2019-01-03T16:31:30.760Z,7.20
2019-01-03T16:32:30.793Z,8.50
2019-01-03T16:33:30.892Z,7.90
2019-01-03T16:34:31.108Z,6.50
2019-01-03T16:35:31.212Z,5.60
2019-01-03T16:36:31.492Z,5.50
2019-01-03T16:37:31.575Z,5.60
2019-01-03T16:38:31.730Z,5.00
2019-01-03T16:39:31.921Z,4.90
2019-01-03T16:40:32.057Z,4.90
2019-01-03T16:41:32.214Z,5.00
2019-01-03T16:42:32.394Z,4.60
2019-01-03T16:43:32.562Z,4.70
2019-01-03T16:44:32.764Z,4.60
2019-01-03T16:45:32.939Z,4.50
2019-01-03T16:46:33.062Z,5.60
2019-01-03T16:47:33.177Z,5.60
2019-01-03T16:48:33.330Z,6.90
2019-01-03T16:49:33.532Z,7.40
2019-01-03T16:50:33.672Z,7.90
2019-01-03T16:51:33.938Z,5.80
2019-01-03T16:52:34.074Z,7.00
2019-01-03T16:53:34.319Z,7.80
2019-01-03T16:54:34.403Z,8.00
2019-01-03T16:55:34.577Z,7.80
2019-01-03T16:56:34.753Z,7.90
2019-01-03T16:57:34.884Z,8.00
2019-01-03T16:58:35.046Z,8.10
2019-01-03T16:59:35.373Z,8.60
2019-01-03T17:00:36.356Z,8.40
2019-01-03T17:01:35.933Z,8.70
2019-01-03T17:04:15.998Z,8.70
2019-01-03T17:05:15.259Z,9.40
2019-01-03T17:06:15.495Z,20.60
2019-01-03T17:07:16.332Z,23.90
2019-01-03T17:08:16.239Z,27.00
2019-01-03T17:09:16.063Z,29.50
2019-01-03T17:10:16.387Z,26.80
2019-01-03T17:11:16.818Z,26.20
2019-01-03T17:12:15.048Z,18.70
2019-01-03T17:13:15.261Z,20.50
2019-01-03T17:14:14.871Z,20.10
2019-01-03T17:15:14.967Z,21.20
2019-01-03T17:16:15.081Z,23.10
2019-01-03T17:17:15.385Z,27.60
2019-01-03T17:18:15.414Z,27.90
2019-01-03T17:19:15.606Z,27.80
2019-01-03T17:20:15.712Z,22.90
2019-01-03T17:21:15.785Z,23.00
2019-01-03T17:22:16.064Z,23.40
2019-01-03T17:23:16.215Z,27.50
2019-01-03T17:24:16.451Z,30.60
2019-01-03T17:25:16.505Z,28.80
2019-01-03T17:26:16.584Z,25.20
2019-01-03T17:27:16.829Z,22.40
2019-01-03T17:28:17.002Z,21.90
2019-01-03T17:29:17.156Z,20.90
2019-01-03T17:30:17.421Z,21.10
2019-01-03T17:31:17.512Z,20.20
2019-01-03T17:32:17.632Z,20.40
2019-01-03T17:33:17.749Z,20.30
2019-01-03T17:34:17.954Z,20.90
2019-01-03T17:35:18.087Z,20.50
2019-01-03T17:36:18.280Z,22.40
2019-01-03T17:37:18.401Z,22.90
2019-01-03T17:38:18.608Z,21.10
2019-01-03T17:39:18.710Z,19.00
2019-01-03T17:40:18.918Z,18.60
2019-01-03T17:41:19.163Z,15.60
2019-01-03T17:42:19.231Z,13.70
2019-01-03T17:43:20.285Z,12.50
2019-01-03T17:44:19.632Z,12.90
2019-01-03T17:45:19.831Z,13.30
2019-01-03T17:46:20.006Z,13.40
2019-01-03T17:47:20.165Z,14.00
2019-01-03T17:48:20.344Z,13.90
2019-01-03T17:49:20.467Z,13.80
2019-01-03T17:50:20.670Z,14.50
2019-01-03T17:51:20.859Z,14.40
2019-01-03T17:52:21.017Z,14.00
2019-01-03T17:53:21.134Z,14.60
2019-01-03T17:54:21.331Z,14.20
2019-01-03T17:55:21.418Z,14.80
2019-01-03T17:56:21.641Z,14.60
2019-01-03T17:57:21.758Z,14.60
2019-01-03T17:58:21.921Z,15.20
2019-01-03T17:59:22.121Z,15.90
2019-01-03T18:00:22.179Z,16.50
2019-01-03T18:01:22.314Z,15.70
2019-01-03T18:02:22.651Z,15.80
2019-01-03T18:03:22.781Z,15.20
2019-01-03T18:04:22.883Z,14.60
2019-01-03T18:05:23.103Z,13.40
2019-01-03T18:06:23.879Z,14.00
2019-01-03T18:08:23.625Z,13.20
2019-01-03T18:09:24.768Z,14.20
2019-01-03T18:10:24.565Z,14.10